Terminal Aerodrome Forecast
Issued by NWS

Current Version | Previous Version | Graphics & Text | Print | Product List | Glossary On
Versions: 1 2 3 4 5 6 7 8 9 10 11 12 13 14 15 16 17 18 19 20 21 22 23 24 25 26
825
FTUS41 KRLX 270906 AAA
TAFCKB
TAF AMD
KCKB 270906Z 2709/2806 19004KT P6SM OVC050
     FM271400 22005KT P6SM OVC025
     FM271600 24005KT P6SM BKN020
     FM272300 24005KT P6SM VCTS BKN025CB
     FM280500 00000KT P6SM BKN020=

USA.gov is the U.S. government's official web portal to all federal, state and local government web resources and services.